Aeroporto :
LOGIN :

Iscrizione | Disclaimer

   EN    FR    IT 

 










Sommario :    VFR   VFR Marginale   IFR   IFR Intensivo   IFR Molto Intensivo
Visibilità : 
Base nubi : 
>= 8 km
>= 3000ft
5 / 8 km
1000 / 3000 ft
1500m / 5 km
500 / 1000 ft
800 / 1500m
200 / 500 ft
< 800m
< 200 ft
Simboli :   Temporali  Nebbia  Neve Forte  Precipitazioni Forti  Vento > 20 kt
SIGMETs :   Varie  Temporali  Ghiacco  Turbolenza  Onda orograficha  Ceneri Vulcaniche







- Altitudine del aeroporto : 602 ft
- Codice IATA : NVS
- Carte del aeroporto


LFQG - Nevers

ULTIMO METAR :
  • 261230Z AUTO 03005KT 320V110 CAVOK 36/15 Q1020

METARs OBSOLETI :
  • 261200Z AUTO 09005KT 010V160 CAVOK 35/16 Q1020
  • 261130Z AUTO 11004KT 050V200 CAVOK 34/14 Q1020
  • 261100Z AUTO VRB03KT CAVOK 33/14 Q1021
  • 261030Z AUTO 15005KT 120V190 CAVOK 32/16 Q1021
  • 261000Z AUTO 15006KT 100V180 CAVOK 32/16 Q1021

TAF N/A
Nessun NOTAM noto per questo aeroporto.



MetMap, La meteo Aeronautica in un colpo d'occhio ! - Copyright ORBIFLY Dicembre 2007 - Disclaimer

ORBIFLY MET'MAP TEAM :

Programmazione e sviluppo : Alexandra Zaïnal
Concezione e sviluppo : Baudouin d'Aumeries
Co-Programmazione e sviluppo : Marc-Olivier Méhu
Supporto tecnico e logistico : Manuel Goepfert
Aiuto per la traduzione : Arnaldo La Scala

Contatto : metmap@orbifly.com




FONTI E CREDITI :

   NOAA